sensor_id;sensor_type;location;lat;lon;timestamp;P1;durP1;ratioP1;P2;durP2;ratioP2
51304;SDS011;37392;50.964;6.952;2024-03-08T00:02:16;35.30;;;17.33;;
51304;SDS011;37392;50.964;6.952;2024-03-08T00:04:41;31.85;;;16.70;;
51304;SDS011;37392;50.964;6.952;2024-03-08T00:07:07;34.28;;;17.90;;
51304;SDS011;37392;50.964;6.952;2024-03-08T00:09:32;36.67;;;18.70;;
51304;SDS011;37392;50.964;6.952;2024-03-08T00:11:58;40.65;;;19.35;;
51304;SDS011;37392;50.964;6.952;2024-03-08T00:14:24;36.92;;;18.98;;
51304;SDS011;37392;50.964;6.952;2024-03-08T00:16:49;31.05;;;18.10;;
51304;SDS011;37392;50.964;6.952;2024-03-08T00:19:15;40.50;;;19.27;;
51304;SDS011;37392;50.964;6.952;2024-03-08T00:21:40;41.75;;;18.15;;
51304;SDS011;37392;50.964;6.952;2024-03-08T00:24:07;41.05;;;18.27;;
51304;SDS011;37392;50.964;6.952;2024-03-08T00:26:33;36.55;;;18.42;;
51304;SDS011;37392;50.964;6.952;2024-03-08T00:28:58;35.95;;;18.88;;
51304;SDS011;37392;50.964;6.952;2024-03-08T00:31:23;35.60;;;18.77;;
51304;SDS011;37392;50.964;6.952;2024-03-08T00:33:50;41.55;;;17.38;;
51304;SDS011;37392;50.964;6.952;2024-03-08T00:36:16;34.15;;;17.95;;
51304;SDS011;37392;50.964;6.952;2024-03-08T00:38:41;34.42;;;17.73;;
51304;SDS011;37392;50.964;6.952;2024-03-08T00:41:07;39.22;;;18.45;;
51304;SDS011;37392;50.964;6.952;2024-03-08T00:43:33;46.85;;;17.88;;
51304;SDS011;37392;50.964;6.952;2024-03-08T00:45:59;37.38;;;19.45;;
51304;SDS011;37392;50.964;6.952;2024-03-08T00:48:26;37.90;;;18.25;;
51304;SDS011;37392;50.964;6.952;2024-03-08T00:50:51;33.10;;;16.63;;
51304;SDS011;37392;50.964;6.952;2024-03-08T00:53:17;44.50;;;20.65;;
51304;SDS011;37392;50.964;6.952;2024-03-08T00:55:43;39.90;;;18.30;;
51304;SDS011;37392;50.964;6.952;2024-03-08T00:58:11;46.92;;;19.77;;
51304;SDS011;37392;50.964;6.952;2024-03-08T01:00:37;41.88;;;20.48;;
51304;SDS011;37392;50.964;6.952;2024-03-08T01:03:03;39.85;;;19.08;;
51304;SDS011;37392;50.964;6.952;2024-03-08T01:05:32;33.22;;;17.90;;
51304;SDS011;37392;50.964;6.952;2024-03-08T01:08:00;39.55;;;19.13;;
51304;SDS011;37392;50.964;6.952;2024-03-08T01:10:25;35.75;;;18.83;;
51304;SDS011;37392;50.964;6.952;2024-03-08T01:12:52;37.53;;;18.50;;
51304;SDS011;37392;50.964;6.952;2024-03-08T01:15:19;41.80;;;18.83;;
51304;SDS011;37392;50.964;6.952;2024-03-08T01:17:45;36.28;;;17.48;;
51304;SDS011;37392;50.964;6.952;2024-03-08T01:20:11;41.90;;;19.40;;
51304;SDS011;37392;50.964;6.952;2024-03-08T01:22:37;38.30;;;19.55;;
51304;SDS011;37392;50.964;6.952;2024-03-08T01:25:03;28.73;;;15.73;;
51304;SDS011;37392;50.964;6.952;2024-03-08T01:27:30;33.88;;;17.77;;
51304;SDS011;37392;50.964;6.952;2024-03-08T01:29:56;33.35;;;18.00;;
51304;SDS011;37392;50.964;6.952;2024-03-08T01:32:21;37.67;;;18.27;;
51304;SDS011;37392;50.964;6.952;2024-03-08T01:34:48;36.00;;;18.58;;
51304;SDS011;37392;50.964;6.952;2024-03-08T01:37:14;44.60;;;19.40;;
51304;SDS011;37392;50.964;6.952;2024-03-08T01:39:39;39.55;;;19.55;;
51304;SDS011;37392;50.964;6.952;2024-03-08T01:42:05;37.35;;;19.73;;
51304;SDS011;37392;50.964;6.952;2024-03-08T01:44:30;40.55;;;18.15;;
51304;SDS011;37392;50.964;6.952;2024-03-08T01:46:56;50.03;;;18.95;;
51304;SDS011;37392;50.964;6.952;2024-03-08T01:49:22;38.53;;;20.08;;
51304;SDS011;37392;50.964;6.952;2024-03-08T01:51:50;40.75;;;19.63;;
51304;SDS011;37392;50.964;6.952;2024-03-08T01:54:16;43.55;;;19.92;;
51304;SDS011;37392;50.964;6.952;2024-03-08T01:56:44;38.80;;;18.45;;
51304;SDS011;37392;50.964;6.952;2024-03-08T01:59:11;42.28;;;19.45;;
51304;SDS011;37392;50.964;6.952;2024-03-08T02:01:37;39.13;;;19.00;;
51304;SDS011;37392;50.964;6.952;2024-03-08T02:04:03;40.70;;;18.73;;
51304;SDS011;37392;50.964;6.952;2024-03-08T02:06:31;40.58;;;20.92;;
51304;SDS011;37392;50.964;6.952;2024-03-08T02:08:56;47.33;;;19.40;;
51304;SDS011;37392;50.964;6.952;2024-03-08T02:11:22;39.58;;;20.00;;
51304;SDS011;37392;50.964;6.952;2024-03-08T02:13:47;38.92;;;19.95;;
51304;SDS011;37392;50.964;6.952;2024-03-08T02:16:19;38.90;;;19.63;;
51304;SDS011;37392;50.964;6.952;2024-03-08T02:18:46;44.35;;;20.20;;
51304;SDS011;37392;50.964;6.952;2024-03-08T02:21:12;46.50;;;21.42;;
51304;SDS011;37392;50.964;6.952;2024-03-08T02:23:37;43.05;;;20.48;;
51304;SDS011;37392;50.964;6.952;2024-03-08T02:26:03;45.08;;;21.35;;
51304;SDS011;37392;50.964;6.952;2024-03-08T02:28:29;45.42;;;21.67;;
51304;SDS011;37392;50.964;6.952;2024-03-08T02:30:55;41.78;;;20.55;;
51304;SDS011;37392;50.964;6.952;2024-03-08T02:33:21;37.92;;;20.10;;
51304;SDS011;37392;50.964;6.952;2024-03-08T02:35:49;47.15;;;20.45;;
51304;SDS011;37392;50.964;6.952;2024-03-08T02:38:16;39.80;;;20.23;;
51304;SDS011;37392;50.964;6.952;2024-03-08T02:40:46;45.78;;;20.38;;
51304;SDS011;37392;50.964;6.952;2024-03-08T02:43:13;43.47;;;20.35;;
51304;SDS011;37392;50.964;6.952;2024-03-08T02:45:40;47.28;;;20.52;;
51304;SDS011;37392;50.964;6.952;2024-03-08T02:48:10;43.05;;;20.52;;
51304;SDS011;37392;50.964;6.952;2024-03-08T02:50:36;39.70;;;20.35;;
51304;SDS011;37392;50.964;6.952;2024-03-08T02:53:02;38.42;;;19.88;;
51304;SDS011;37392;50.964;6.952;2024-03-08T02:55:29;45.45;;;20.38;;
51304;SDS011;37392;50.964;6.952;2024-03-08T02:57:55;52.58;;;22.45;;
51304;SDS011;37392;50.964;6.952;2024-03-08T03:00:21;42.30;;;20.33;;
51304;SDS011;37392;50.964;6.952;2024-03-08T03:05:19;42.92;;;21.92;;
51304;SDS011;37392;50.964;6.952;2024-03-08T03:07:45;45.85;;;20.88;;
51304;SDS011;37392;50.964;6.952;2024-03-08T03:10:11;44.83;;;22.48;;
51304;SDS011;37392;50.964;6.952;2024-03-08T03:12:43;40.75;;;18.88;;
51304;SDS011;37392;50.964;6.952;2024-03-08T03:15:10;45.50;;;19.85;;
51304;SDS011;37392;50.964;6.952;2024-03-08T03:17:37;47.03;;;19.95;;
51304;SDS011;37392;50.964;6.952;2024-03-08T03:20:06;43.03;;;21.98;;
51304;SDS011;37392;50.964;6.952;2024-03-08T03:22:38;42.08;;;20.90;;
51304;SDS011;37392;50.964;6.952;2024-03-08T03:25:05;47.90;;;22.02;;
51304;SDS011;37392;50.964;6.952;2024-03-08T03:27:34;44.38;;;21.48;;
51304;SDS011;37392;50.964;6.952;2024-03-08T03:30:00;40.60;;;20.25;;
51304;SDS011;37392;50.964;6.952;2024-03-08T03:32:45;45.03;;;20.92;;
51304;SDS011;37392;50.964;6.952;2024-03-08T03:35:15;42.17;;;20.55;;
51304;SDS011;37392;50.964;6.952;2024-03-08T03:37:42;43.08;;;21.75;;
51304;SDS011;37392;50.964;6.952;2024-03-08T03:40:10;44.97;;;21.55;;
51304;SDS011;37392;50.964;6.952;2024-03-08T03:42:38;39.95;;;20.65;;
51304;SDS011;37392;50.964;6.952;2024-03-08T03:45:05;43.40;;;19.88;;
51304;SDS011;37392;50.964;6.952;2024-03-08T03:47:31;42.20;;;19.85;;
51304;SDS011;37392;50.964;6.952;2024-03-08T03:49:56;41.08;;;20.08;;
51304;SDS011;37392;50.964;6.952;2024-03-08T03:52:26;42.65;;;20.55;;
51304;SDS011;37392;50.964;6.952;2024-03-08T03:54:52;44.88;;;19.95;;
51304;SDS011;37392;50.964;6.952;2024-03-08T03:57:17;44.75;;;20.10;;
51304;SDS011;37392;50.964;6.952;2024-03-08T03:59:43;41.83;;;20.08;;
51304;SDS011;37392;50.964;6.952;2024-03-08T04:02:09;47.28;;;19.83;;
51304;SDS011;37392;50.964;6.952;2024-03-08T04:04:35;48.28;;;21.70;;
51304;SDS011;37392;50.964;6.952;2024-03-08T04:07:00;38.35;;;20.88;;
51304;SDS011;37392;50.964;6.952;2024-03-08T04:09:27;39.65;;;19.63;;
51304;SDS011;37392;50.964;6.952;2024-03-08T04:11:52;50.28;;;20.13;;
51304;SDS011;37392;50.964;6.952;2024-03-08T04:14:20;48.03;;;20.92;;
51304;SDS011;37392;50.964;6.952;2024-03-08T04:16:46;40.55;;;19.95;;
51304;SDS011;37392;50.964;6.952;2024-03-08T04:19:13;45.47;;;20.65;;
51304;SDS011;37392;50.964;6.952;2024-03-08T04:21:38;41.45;;;20.33;;
51304;SDS011;37392;50.964;6.952;2024-03-08T04:24:04;44.17;;;21.27;;
51304;SDS011;37392;50.964;6.952;2024-03-08T04:26:30;42.38;;;18.13;;
51304;SDS011;37392;50.964;6.952;2024-03-08T04:28:56;51.47;;;20.35;;
51304;SDS011;37392;50.964;6.952;2024-03-08T04:31:22;46.55;;;21.45;;
51304;SDS011;37392;50.964;6.952;2024-03-08T04:33:47;41.72;;;19.23;;
51304;SDS011;37392;50.964;6.952;2024-03-08T04:36:13;41.65;;;18.42;;
51304;SDS011;37392;50.964;6.952;2024-03-08T04:38:39;45.70;;;22.90;;
51304;SDS011;37392;50.964;6.952;2024-03-08T04:41:06;40.72;;;20.50;;
51304;SDS011;37392;50.964;6.952;2024-03-08T04:43:32;41.13;;;20.50;;
51304;SDS011;37392;50.964;6.952;2024-03-08T04:45:58;40.97;;;20.58;;
51304;SDS011;37392;50.964;6.952;2024-03-08T04:48:24;54.63;;;23.15;;
51304;SDS011;37392;50.964;6.952;2024-03-08T04:50:51;44.45;;;19.10;;
51304;SDS011;37392;50.964;6.952;2024-03-08T04:53:18;41.30;;;18.48;;
51304;SDS011;37392;50.964;6.952;2024-03-08T04:55:43;44.35;;;21.02;;
51304;SDS011;37392;50.964;6.952;2024-03-08T04:58:09;43.88;;;20.73;;
51304;SDS011;37392;50.964;6.952;2024-03-08T05:00:34;39.72;;;20.42;;
51304;SDS011;37392;50.964;6.952;2024-03-08T05:03:00;39.65;;;19.77;;
51304;SDS011;37392;50.964;6.952;2024-03-08T05:05:26;43.70;;;19.70;;
51304;SDS011;37392;50.964;6.952;2024-03-08T05:07:53;43.40;;;20.00;;
51304;SDS011;37392;50.964;6.952;2024-03-08T05:10:19;42.85;;;20.25;;
51304;SDS011;37392;50.964;6.952;2024-03-08T05:12:44;44.28;;;21.42;;
51304;SDS011;37392;50.964;6.952;2024-03-08T05:15:10;44.45;;;21.73;;
51304;SDS011;37392;50.964;6.952;2024-03-08T05:17:36;42.45;;;19.83;;
51304;SDS011;37392;50.964;6.952;2024-03-08T05:20:01;45.20;;;20.70;;
51304;SDS011;37392;50.964;6.952;2024-03-08T05:22:28;41.25;;;19.80;;
51304;SDS011;37392;50.964;6.952;2024-03-08T05:24:54;47.90;;;21.30;;
51304;SDS011;37392;50.964;6.952;2024-03-08T05:27:20;46.90;;;20.77;;
51304;SDS011;37392;50.964;6.952;2024-03-08T05:29:46;43.67;;;20.35;;
51304;SDS011;37392;50.964;6.952;2024-03-08T05:32:11;58.08;;;23.40;;
51304;SDS011;37392;50.964;6.952;2024-03-08T05:34:37;49.95;;;21.70;;
51304;SDS011;37392;50.964;6.952;2024-03-08T05:37:03;44.75;;;21.55;;
51304;SDS011;37392;50.964;6.952;2024-03-08T05:39:29;43.97;;;21.73;;
51304;SDS011;37392;50.964;6.952;2024-03-08T05:41:55;49.90;;;22.85;;
51304;SDS011;37392;50.964;6.952;2024-03-08T05:44:21;41.10;;;20.88;;
51304;SDS011;37392;50.964;6.952;2024-03-08T05:46:46;49.60;;;21.75;;
51304;SDS011;37392;50.964;6.952;2024-03-08T05:49:12;47.03;;;21.27;;
51304;SDS011;37392;50.964;6.952;2024-03-08T05:51:39;50.33;;;22.73;;
51304;SDS011;37392;50.964;6.952;2024-03-08T05:54:14;48.78;;;22.70;;
51304;SDS011;37392;50.964;6.952;2024-03-08T05:56:41;50.30;;;22.23;;
51304;SDS011;37392;50.964;6.952;2024-03-08T05:59:09;51.63;;;20.90;;
51304;SDS011;37392;50.964;6.952;2024-03-08T06:01:36;46.63;;;22.45;;
51304;SDS011;37392;50.964;6.952;2024-03-08T06:04:02;55.50;;;20.70;;
51304;SDS011;37392;50.964;6.952;2024-03-08T06:06:29;45.47;;;20.33;;
51304;SDS011;37392;50.964;6.952;2024-03-08T06:08:54;50.33;;;21.15;;
51304;SDS011;37392;50.964;6.952;2024-03-08T06:11:23;51.63;;;22.77;;
51304;SDS011;37392;50.964;6.952;2024-03-08T06:13:51;52.47;;;23.33;;
51304;SDS011;37392;50.964;6.952;2024-03-08T06:16:24;47.35;;;22.38;;
51304;SDS011;37392;50.964;6.952;2024-03-08T06:18:54;55.35;;;22.83;;
51304;SDS011;37392;50.964;6.952;2024-03-08T06:21:23;52.25;;;23.10;;
51304;SDS011;37392;50.964;6.952;2024-03-08T06:23:51;47.15;;;22.35;;
51304;SDS011;37392;50.964;6.952;2024-03-08T06:26:23;43.53;;;22.40;;
51304;SDS011;37392;50.964;6.952;2024-03-08T06:28:50;59.47;;;24.35;;
51304;SDS011;37392;50.964;6.952;2024-03-08T06:31:16;57.15;;;22.60;;
51304;SDS011;37392;50.964;6.952;2024-03-08T06:33:41;45.15;;;23.17;;
51304;SDS011;37392;50.964;6.952;2024-03-08T06:36:08;51.42;;;23.52;;
51304;SDS011;37392;50.964;6.952;2024-03-08T06:38:36;50.85;;;24.05;;
51304;SDS011;37392;50.964;6.952;2024-03-08T06:43:33;40.17;;;20.00;;
51304;SDS011;37392;50.964;6.952;2024-03-08T06:45:59;44.88;;;21.50;;
51304;SDS011;37392;50.964;6.952;2024-03-08T06:48:25;47.28;;;23.08;;
51304;SDS011;37392;50.964;6.952;2024-03-08T06:50:50;45.45;;;22.33;;
51304;SDS011;37392;50.964;6.952;2024-03-08T06:53:16;46.60;;;22.27;;
51304;SDS011;37392;50.964;6.952;2024-03-08T06:55:44;43.25;;;21.75;;
51304;SDS011;37392;50.964;6.952;2024-03-08T06:58:10;41.17;;;22.92;;
51304;SDS011;37392;50.964;6.952;2024-03-08T07:00:35;42.65;;;23.83;;
51304;SDS011;37392;50.964;6.952;2024-03-08T07:03:02;53.20;;;22.60;;
51304;SDS011;37392;50.964;6.952;2024-03-08T07:05:28;41.20;;;22.45;;
51304;SDS011;37392;50.964;6.952;2024-03-08T07:07:55;43.53;;;21.77;;
51304;SDS011;37392;50.964;6.952;2024-03-08T07:10:21;41.13;;;21.65;;
51304;SDS011;37392;50.964;6.952;2024-03-08T07:12:49;35.72;;;20.65;;
51304;SDS011;37392;50.964;6.952;2024-03-08T07:15:18;40.58;;;20.10;;
51304;SDS011;37392;50.964;6.952;2024-03-08T07:17:48;40.08;;;21.90;;
51304;SDS011;37392;50.964;6.952;2024-03-08T07:20:14;34.47;;;20.67;;
51304;SDS011;37392;50.964;6.952;2024-03-08T07:22:44;39.80;;;20.88;;
51304;SDS011;37392;50.964;6.952;2024-03-08T07:25:13;36.38;;;19.88;;
51304;SDS011;37392;50.964;6.952;2024-03-08T07:27:54;44.17;;;22.48;;
51304;SDS011;37392;50.964;6.952;2024-03-08T07:30:21;43.75;;;21.77;;
51304;SDS011;37392;50.964;6.952;2024-03-08T07:33:07;42.60;;;22.42;;
51304;SDS011;37392;50.964;6.952;2024-03-08T07:35:36;38.28;;;21.58;;
51304;SDS011;37392;50.964;6.952;2024-03-08T07:38:06;36.25;;;20.98;;
51304;SDS011;37392;50.964;6.952;2024-03-08T07:40:37;36.88;;;19.55;;
51304;SDS011;37392;50.964;6.952;2024-03-08T07:43:09;35.67;;;20.77;;
51304;SDS011;37392;50.964;6.952;2024-03-08T07:45:37;38.63;;;20.75;;
51304;SDS011;37392;50.964;6.952;2024-03-08T07:48:03;37.47;;;21.50;;
51304;SDS011;37392;50.964;6.952;2024-03-08T07:50:34;33.63;;;19.58;;
51304;SDS011;37392;50.964;6.952;2024-03-08T07:53:04;37.10;;;19.10;;
51304;SDS011;37392;50.964;6.952;2024-03-08T07:55:31;34.50;;;19.83;;
51304;SDS011;37392;50.964;6.952;2024-03-08T07:57:58;34.25;;;19.63;;
51304;SDS011;37392;50.964;6.952;2024-03-08T08:00:24;35.20;;;20.17;;
51304;SDS011;37392;50.964;6.952;2024-03-08T08:02:52;35.17;;;19.45;;
51304;SDS011;37392;50.964;6.952;2024-03-08T08:05:18;32.40;;;19.25;;
51304;SDS011;37392;50.964;6.952;2024-03-08T08:07:44;34.08;;;19.40;;
51304;SDS011;37392;50.964;6.952;2024-03-08T08:10:11;31.60;;;17.60;;
51304;SDS011;37392;50.964;6.952;2024-03-08T08:12:46;39.72;;;20.67;;
51304;SDS011;37392;50.964;6.952;2024-03-08T08:15:15;32.60;;;19.42;;
51304;SDS011;37392;50.964;6.952;2024-03-08T08:17:44;35.08;;;18.67;;
51304;SDS011;37392;50.964;6.952;2024-03-08T08:20:10;34.75;;;19.95;;
51304;SDS011;37392;50.964;6.952;2024-03-08T08:22:38;32.53;;;19.45;;
51304;SDS011;37392;50.964;6.952;2024-03-08T08:25:08;31.58;;;19.48;;
51304;SDS011;37392;50.964;6.952;2024-03-08T08:27:34;30.50;;;19.35;;
51304;SDS011;37392;50.964;6.952;2024-03-08T08:30:01;36.40;;;18.50;;
51304;SDS011;37392;50.964;6.952;2024-03-08T08:32:32;31.52;;;17.55;;
51304;SDS011;37392;50.964;6.952;2024-03-08T08:35:02;31.60;;;18.58;;
51304;SDS011;37392;50.964;6.952;2024-03-08T08:37:30;30.70;;;17.30;;
51304;SDS011;37392;50.964;6.952;2024-03-08T08:39:56;33.60;;;18.83;;
51304;SDS011;37392;50.964;6.952;2024-03-08T08:42:22;28.67;;;16.83;;
51304;SDS011;37392;50.964;6.952;2024-03-08T08:44:48;28.23;;;16.50;;
51304;SDS011;37392;50.964;6.952;2024-03-08T08:47:15;28.63;;;17.13;;
51304;SDS011;37392;50.964;6.952;2024-03-08T08:49:43;36.80;;;18.55;;
51304;SDS011;37392;50.964;6.952;2024-03-08T08:52:11;34.22;;;18.63;;
51304;SDS011;37392;50.964;6.952;2024-03-08T08:54:37;34.58;;;17.63;;
51304;SDS011;37392;50.964;6.952;2024-03-08T08:57:03;31.75;;;19.00;;
51304;SDS011;37392;50.964;6.952;2024-03-08T08:59:32;41.72;;;19.52;;
51304;SDS011;37392;50.964;6.952;2024-03-08T09:02:02;28.90;;;17.30;;
51304;SDS011;37392;50.964;6.952;2024-03-08T09:04:28;30.70;;;16.02;;
51304;SDS011;37392;50.964;6.952;2024-03-08T09:06:55;28.90;;;16.48;;
51304;SDS011;37392;50.964;6.952;2024-03-08T09:09:21;29.55;;;18.08;;
51304;SDS011;37392;50.964;6.952;2024-03-08T09:11:47;30.95;;;18.10;;
51304;SDS011;37392;50.964;6.952;2024-03-08T09:14:14;31.35;;;17.77;;
51304;SDS011;37392;50.964;6.952;2024-03-08T09:16:43;32.33;;;17.45;;
51304;SDS011;37392;50.964;6.952;2024-03-08T09:19:08;27.83;;;17.48;;
51304;SDS011;37392;50.964;6.952;2024-03-08T09:21:36;29.88;;;17.58;;
51304;SDS011;37392;50.964;6.952;2024-03-08T09:24:02;26.23;;;15.63;;
51304;SDS011;37392;50.964;6.952;2024-03-08T09:26:28;28.77;;;16.92;;
51304;SDS011;37392;50.964;6.952;2024-03-08T09:28:53;31.13;;;16.35;;
51304;SDS011;37392;50.964;6.952;2024-03-08T09:31:22;26.83;;;16.60;;
51304;SDS011;37392;50.964;6.952;2024-03-08T09:33:47;31.95;;;17.45;;
51304;SDS011;37392;50.964;6.952;2024-03-08T09:36:13;25.38;;;15.82;;
51304;SDS011;37392;50.964;6.952;2024-03-08T09:38:39;30.73;;;16.45;;
51304;SDS011;37392;50.964;6.952;2024-03-08T09:41:05;30.08;;;16.63;;
51304;SDS011;37392;50.964;6.952;2024-03-08T09:43:31;28.27;;;15.32;;
51304;SDS011;37392;50.964;6.952;2024-03-08T09:45:58;30.58;;;15.75;;
51304;SDS011;37392;50.964;6.952;2024-03-08T09:48:25;28.38;;;15.57;;
51304;SDS011;37392;50.964;6.952;2024-03-08T09:50:51;24.45;;;15.05;;
51304;SDS011;37392;50.964;6.952;2024-03-08T09:53:17;23.42;;;14.90;;
51304;SDS011;37392;50.964;6.952;2024-03-08T09:55:43;28.25;;;15.35;;
51304;SDS011;37392;50.964;6.952;2024-03-08T09:58:11;24.02;;;14.10;;
51304;SDS011;37392;50.964;6.952;2024-03-08T10:00:52;27.48;;;14.75;;
51304;SDS011;37392;50.964;6.952;2024-03-08T10:03:19;22.63;;;14.73;;
51304;SDS011;37392;50.964;6.952;2024-03-08T10:05:45;21.92;;;13.95;;
51304;SDS011;37392;50.964;6.952;2024-03-08T10:08:11;26.85;;;14.00;;
51304;SDS011;37392;50.964;6.952;2024-03-08T10:10:38;25.23;;;13.90;;
51304;SDS011;37392;50.964;6.952;2024-03-08T10:13:07;25.75;;;14.55;;
51304;SDS011;37392;50.964;6.952;2024-03-08T10:15:34;23.17;;;13.68;;
51304;SDS011;37392;50.964;6.952;2024-03-08T10:18:00;21.67;;;13.02;;
51304;SDS011;37392;50.964;6.952;2024-03-08T10:20:32;19.20;;;10.93;;
51304;SDS011;37392;50.964;6.952;2024-03-08T10:22:59;18.48;;;11.23;;
51304;SDS011;37392;50.964;6.952;2024-03-08T10:25:28;19.77;;;11.18;;
51304;SDS011;37392;50.964;6.952;2024-03-08T10:27:55;20.08;;;12.63;;
51304;SDS011;37392;50.964;6.952;2024-03-08T10:30:21;23.80;;;12.20;;
51304;SDS011;37392;50.964;6.952;2024-03-08T10:32:47;27.40;;;11.60;;
51304;SDS011;37392;50.964;6.952;2024-03-08T10:35:13;19.08;;;9.82;;
51304;SDS011;37392;50.964;6.952;2024-03-08T10:37:44;21.35;;;11.77;;
51304;SDS011;37392;50.964;6.952;2024-03-08T10:40:18;14.30;;;9.68;;
51304;SDS011;37392;50.964;6.952;2024-03-08T10:45:35;22.33;;;10.55;;
51304;SDS011;37392;50.964;6.952;2024-03-08T10:48:43;16.30;;;9.95;;
51304;SDS011;37392;50.964;6.952;2024-03-08T10:51:11;22.08;;;10.52;;
51304;SDS011;37392;50.964;6.952;2024-03-08T10:53:37;20.52;;;10.75;;
51304;SDS011;37392;50.964;6.952;2024-03-08T10:56:06;27.42;;;10.73;;
51304;SDS011;37392;50.964;6.952;2024-03-08T10:58:34;19.23;;;9.77;;
51304;SDS011;37392;50.964;6.952;2024-03-08T11:01:01;22.73;;;10.52;;
51304;SDS011;37392;50.964;6.952;2024-03-08T11:06:16;19.40;;;10.80;;
51304;SDS011;37392;50.964;6.952;2024-03-08T11:08:46;17.80;;;10.63;;
51304;SDS011;37392;50.964;6.952;2024-03-08T11:11:25;16.45;;;10.73;;
51304;SDS011;37392;50.964;6.952;2024-03-08T11:13:57;22.50;;;10.70;;
51304;SDS011;37392;50.964;6.952;2024-03-08T11:19:05;17.38;;;9.77;;
51304;SDS011;37392;50.964;6.952;2024-03-08T11:21:36;16.25;;;9.80;;
51304;SDS011;37392;50.964;6.952;2024-03-08T11:24:09;18.75;;;10.23;;
51304;SDS011;37392;50.964;6.952;2024-03-08T11:26:41;19.77;;;10.35;;
51304;SDS011;37392;50.964;6.952;2024-03-08T11:34:43;19.95;;;9.45;;
51304;SDS011;37392;50.964;6.952;2024-03-08T11:37:13;14.52;;;8.35;;
51304;SDS011;37392;50.964;6.952;2024-03-08T11:42:23;19.15;;;10.25;;
51304;SDS011;37392;50.964;6.952;2024-03-08T11:44:51;15.48;;;9.15;;
51304;SDS011;37392;50.964;6.952;2024-03-08T11:47:17;19.35;;;9.75;;
51304;SDS011;37392;50.964;6.952;2024-03-08T11:49:43;15.75;;;9.88;;
51304;SDS011;37392;50.964;6.952;2024-03-08T11:52:11;19.83;;;9.88;;
51304;SDS011;37392;50.964;6.952;2024-03-08T11:54:40;16.83;;;9.90;;
51304;SDS011;37392;50.964;6.952;2024-03-08T11:57:06;19.83;;;9.35;;
51304;SDS011;37392;50.964;6.952;2024-03-08T11:59:32;15.32;;;8.40;;
51304;SDS011;37392;50.964;6.952;2024-03-08T12:02:06;18.38;;;10.43;;
51304;SDS011;37392;50.964;6.952;2024-03-08T12:04:35;22.55;;;9.93;;
51304;SDS011;37392;50.964;6.952;2024-03-08T12:07:01;16.95;;;9.18;;
51304;SDS011;37392;50.964;6.952;2024-03-08T12:09:28;17.30;;;9.52;;
51304;SDS011;37392;50.964;6.952;2024-03-08T12:11:54;19.38;;;10.02;;
51304;SDS011;37392;50.964;6.952;2024-03-08T12:14:19;25.35;;;9.80;;
51304;SDS011;37392;50.964;6.952;2024-03-08T12:16:46;18.15;;;9.40;;
51304;SDS011;37392;50.964;6.952;2024-03-08T12:19:13;18.55;;;10.38;;
51304;SDS011;37392;50.964;6.952;2024-03-08T12:21:39;17.30;;;9.70;;
51304;SDS011;37392;50.964;6.952;2024-03-08T12:24:13;18.73;;;9.88;;
51304;SDS011;37392;50.964;6.952;2024-03-08T12:26:44;17.30;;;10.82;;
51304;SDS011;37392;50.964;6.952;2024-03-08T12:29:25;15.68;;;9.43;;
51304;SDS011;37392;50.964;6.952;2024-03-08T12:31:58;19.88;;;10.15;;
51304;SDS011;37392;50.964;6.952;2024-03-08T12:34:26;16.75;;;9.95;;
51304;SDS011;37392;50.964;6.952;2024-03-08T12:36:53;21.88;;;10.48;;
51304;SDS011;37392;50.964;6.952;2024-03-08T12:39:20;20.23;;;10.07;;
51304;SDS011;37392;50.964;6.952;2024-03-08T12:41:47;19.95;;;9.80;;
51304;SDS011;37392;50.964;6.952;2024-03-08T12:44:18;16.55;;;9.63;;
51304;SDS011;37392;50.964;6.952;2024-03-08T12:46:46;17.65;;;9.95;;
51304;SDS011;37392;50.964;6.952;2024-03-08T12:49:13;15.98;;;9.95;;
51304;SDS011;37392;50.964;6.952;2024-03-08T12:51:42;24.50;;;10.18;;
51304;SDS011;37392;50.964;6.952;2024-03-08T12:54:12;15.85;;;9.57;;
51304;SDS011;37392;50.964;6.952;2024-03-08T12:56:38;15.23;;;8.90;;
51304;SDS011;37392;50.964;6.952;2024-03-08T12:59:04;16.02;;;9.05;;
51304;SDS011;37392;50.964;6.952;2024-03-08T13:01:38;22.50;;;9.57;;
51304;SDS011;37392;50.964;6.952;2024-03-08T13:04:04;23.25;;;9.55;;
51304;SDS011;37392;50.964;6.952;2024-03-08T13:06:31;17.52;;;9.02;;
51304;SDS011;37392;50.964;6.952;2024-03-08T13:08:57;15.45;;;8.70;;
51304;SDS011;37392;50.964;6.952;2024-03-08T13:11:30;15.50;;;9.23;;
51304;SDS011;37392;50.964;6.952;2024-03-08T13:13:55;25.30;;;10.40;;
51304;SDS011;37392;50.964;6.952;2024-03-08T13:16:21;21.00;;;10.75;;
51304;SDS011;37392;50.964;6.952;2024-03-08T13:18:46;14.32;;;8.80;;
51304;SDS011;37392;50.964;6.952;2024-03-08T13:21:14;16.23;;;8.45;;
51304;SDS011;37392;50.964;6.952;2024-03-08T13:23:43;17.20;;;8.98;;
51304;SDS011;37392;50.964;6.952;2024-03-08T13:26:14;14.75;;;8.15;;
51304;SDS011;37392;50.964;6.952;2024-03-08T13:28:47;15.23;;;8.80;;
51304;SDS011;37392;50.964;6.952;2024-03-08T13:31:18;16.45;;;9.40;;
51304;SDS011;37392;50.964;6.952;2024-03-08T13:33:45;17.70;;;9.70;;
51304;SDS011;37392;50.964;6.952;2024-03-08T13:36:12;18.02;;;9.82;;
51304;SDS011;37392;50.964;6.952;2024-03-08T13:38:45;14.35;;;8.70;;
51304;SDS011;37392;50.964;6.952;2024-03-08T13:41:13;17.13;;;9.05;;
51304;SDS011;37392;50.964;6.952;2024-03-08T13:43:42;17.98;;;9.35;;
51304;SDS011;37392;50.964;6.952;2024-03-08T13:46:11;15.87;;;9.33;;
51304;SDS011;37392;50.964;6.952;2024-03-08T13:48:37;15.77;;;9.35;;
51304;SDS011;37392;50.964;6.952;2024-03-08T13:51:04;13.13;;;8.65;;
51304;SDS011;37392;50.964;6.952;2024-03-08T13:53:31;16.05;;;9.88;;
51304;SDS011;37392;50.964;6.952;2024-03-08T13:55:58;18.85;;;8.82;;
51304;SDS011;37392;50.964;6.952;2024-03-08T13:58:25;15.70;;;8.20;;
51304;SDS011;37392;50.964;6.952;2024-03-08T14:00:51;19.08;;;9.35;;
51304;SDS011;37392;50.964;6.952;2024-03-08T14:03:16;13.13;;;8.10;;
51304;SDS011;37392;50.964;6.952;2024-03-08T14:05:42;16.23;;;8.85;;
51304;SDS011;37392;50.964;6.952;2024-03-08T14:08:08;15.57;;;8.70;;
51304;SDS011;37392;50.964;6.952;2024-03-08T14:10:34;17.08;;;9.23;;
51304;SDS011;37392;50.964;6.952;2024-03-08T14:13:02;18.38;;;9.90;;
51304;SDS011;37392;50.964;6.952;2024-03-08T14:15:30;15.45;;;8.02;;
51304;SDS011;37392;50.964;6.952;2024-03-08T14:17:56;16.20;;;8.55;;
51304;SDS011;37392;50.964;6.952;2024-03-08T14:20:22;17.00;;;8.95;;
51304;SDS011;37392;50.964;6.952;2024-03-08T14:22:53;16.25;;;9.40;;
51304;SDS011;37392;50.964;6.952;2024-03-08T14:25:19;20.67;;;10.02;;
51304;SDS011;37392;50.964;6.952;2024-03-08T14:27:48;17.63;;;10.10;;
51304;SDS011;37392;50.964;6.952;2024-03-08T14:30:15;17.70;;;8.95;;
51304;SDS011;37392;50.964;6.952;2024-03-08T14:32:57;20.70;;;10.30;;
51304;SDS011;37392;50.964;6.952;2024-03-08T14:35:26;17.27;;;10.48;;
51304;SDS011;37392;50.964;6.952;2024-03-08T14:37:57;16.27;;;9.10;;
51304;SDS011;37392;50.964;6.952;2024-03-08T14:40:26;19.60;;;10.60;;
51304;SDS011;37392;50.964;6.952;2024-03-08T14:42:51;21.85;;;10.82;;
51304;SDS011;37392;50.964;6.952;2024-03-08T14:45:17;20.60;;;10.13;;
51304;SDS011;37392;50.964;6.952;2024-03-08T14:47:45;22.17;;;9.35;;